Terminal Aerodrome Forecast
Issued by NWS

Home | Current Version | Previous Version | Text Only | Print | Product List | Glossary On
Versions: 1 2 3 4 5 6 7 8 9 10 11 12
000
FTUS46 KSGX 220500
TAFTRM
TAF
KTRM 220520Z 2206/2306 33011KT P6SM FEW200
     FM220700 VRB05KT P6SM FEW200
     FM230500 33010KT P6SM FEW200=

USA.gov is the U.S. government's official web portal to all federal, state and local government web resources and services.